IVR weather

Inverell Airport
Inverell, New South Wales, Australia

Public forecast

Using degrees Celsius for public forecast. Weather courtesy of forecast.io.

Closest aviation weather report (METAR) to Inverell Airport

Closest report is Moree Airport, 71.7 nm (132.7 km) WNW. Retrieved 2019/10/21 00:00 UTC (60 minutes ago):

YMOR 210000Z AUTO 05010KT 9999 // NCD 23/06 Q1025

Closest aviation forecast (TAF) to Inverell Airport

Closest forecast is Tamworth Airport, 73.4 nm (136.0 km) SSW. Retrieved 2019-10-21 00:36 UTC (24 minutes ago):

TAF TAF YSTW 202251Z 2100/2118 10005KT CAVOK FM210200 17008KT CAVOK FM210900 11008KT CAVOK